createdAt,value
2022-10-12T00:02:19.403Z,5.70
2022-10-12T00:05:22.496Z,6.40
2022-10-12T00:08:25.067Z,4.63
2022-10-12T00:11:30.185Z,5.60
2022-10-12T00:14:32.682Z,4.90
2022-10-12T00:17:35.378Z,5.03
2022-10-12T00:20:38.108Z,5.25
2022-10-12T00:23:41.696Z,4.95
2022-10-12T00:26:44.911Z,5.75
2022-10-12T00:29:47.575Z,5.13
2022-10-12T00:32:53.368Z,5.22
2022-10-12T00:35:56.110Z,4.93
2022-10-12T00:38:58.712Z,4.53
2022-10-12T00:42:01.141Z,5.05
2022-10-12T00:45:03.814Z,6.07
2022-10-12T00:48:06.396Z,5.20
2022-10-12T00:51:09.412Z,5.10
2022-10-12T00:54:15.979Z,4.47
2022-10-12T00:57:20.447Z,5.05
2022-10-12T01:00:24.130Z,4.05
2022-10-12T01:03:27.279Z,3.95
2022-10-12T01:06:30.916Z,4.65
2022-10-12T01:09:33.936Z,4.45
2022-10-12T01:12:37.611Z,4.43
2022-10-12T01:15:50.807Z,4.65
2022-10-12T01:19:14.924Z,5.05
2022-10-12T01:22:20.616Z,5.05
2022-10-12T01:25:55.242Z,4.95
2022-10-12T01:29:12.444Z,5.38
2022-10-12T01:32:28.107Z,5.40
2022-10-12T01:36:04.899Z,4.47
2022-10-12T01:39:18.175Z,4.60
2022-10-12T01:42:37.852Z,4.90
2022-10-12T01:45:40.659Z,5.38
2022-10-12T01:48:45.588Z,4.35
2022-10-12T01:52:04.381Z,4.53
2022-10-12T01:55:11.099Z,4.93
2022-10-12T01:58:52.334Z,4.90
2022-10-12T02:02:21.622Z,5.03
2022-10-12T02:05:38.783Z,4.25
2022-10-12T02:08:57.564Z,4.85
2022-10-12T02:12:05.378Z,4.72
2022-10-12T02:15:12.507Z,4.40
2022-10-12T02:18:19.082Z,5.07
2022-10-12T02:21:25.615Z,4.60
2022-10-12T02:24:29.706Z,4.70
2022-10-12T02:27:34.628Z,4.32
2022-10-12T02:31:02.465Z,4.82
2022-10-12T02:34:11.653Z,5.30
2022-10-12T02:38:03.640Z,5.47
2022-10-12T02:41:20.445Z,5.07
2022-10-12T02:44:29.826Z,4.80
2022-10-12T02:47:33.555Z,4.75
2022-10-12T02:50:36.774Z,4.45
2022-10-12T02:53:42.600Z,4.43
2022-10-12T02:56:46.560Z,3.83
2022-10-12T02:59:49.133Z,4.88
2022-10-12T03:02:51.630Z,4.95
2022-10-12T03:05:54.375Z,4.45
2022-10-12T03:08:57.726Z,5.25
2022-10-12T03:12:00.250Z,4.90
2022-10-12T03:15:02.763Z,4.70
2022-10-12T03:18:08.241Z,4.30
2022-10-12T03:21:11.322Z,4.53
2022-10-12T03:24:13.962Z,5.28
2022-10-12T03:27:16.730Z,4.07
2022-10-12T03:30:19.427Z,4.75
2022-10-12T03:33:31.025Z,6.05
2022-10-12T03:36:33.906Z,5.18
2022-10-12T03:39:36.342Z,5.25
2022-10-12T03:42:39.132Z,4.97
2022-10-12T03:45:41.499Z,5.45
2022-10-12T03:48:43.867Z,5.65
2022-10-12T03:51:46.335Z,5.15
2022-10-12T03:54:48.922Z,5.10
2022-10-12T03:57:51.414Z,5.35
2022-10-12T04:00:54.827Z,4.72
2022-10-12T04:03:57.565Z,5.43
2022-10-12T04:07:00.342Z,5.10
2022-10-12T04:10:03.656Z,4.70
2022-10-12T04:13:06.208Z,4.22
2022-10-12T04:16:10.940Z,5.38
2022-10-12T04:19:14.490Z,4.82
2022-10-12T04:22:19.720Z,4.22
2022-10-12T04:25:29.233Z,4.43
2022-10-12T04:28:33.177Z,4.38
2022-10-12T04:31:35.576Z,4.43
2022-10-12T04:34:38.101Z,4.15
2022-10-12T04:37:41.200Z,5.72
2022-10-12T04:40:48.423Z,4.60
2022-10-12T04:46:56.920Z,4.00
2022-10-12T04:49:59.436Z,4.45
2022-10-12T04:53:02.010Z,4.13
2022-10-12T04:56:05.864Z,4.15
2022-10-12T04:59:08.262Z,5.13
2022-10-12T05:02:10.866Z,4.65
2022-10-12T05:05:13.612Z,3.92
2022-10-12T05:08:17.098Z,4.55
2022-10-12T05:11:19.945Z,4.93
2022-10-12T05:14:22.444Z,5.03
2022-10-12T05:17:25.389Z,4.13
2022-10-12T05:20:32.865Z,4.35
2022-10-12T05:23:36.206Z,4.75
2022-10-12T05:26:38.886Z,5.80
2022-10-12T05:29:41.351Z,5.18
2022-10-12T05:32:47.111Z,4.15
2022-10-12T05:35:54.635Z,5.10
2022-10-12T05:38:59.239Z,4.28
2022-10-12T05:42:01.883Z,4.85
2022-10-12T05:45:05.656Z,4.85
2022-10-12T05:48:08.182Z,4.88
2022-10-12T05:51:10.895Z,4.90
2022-10-12T05:54:14.012Z,4.93
2022-10-12T05:57:16.697Z,4.93
2022-10-12T06:00:19.436Z,4.45
2022-10-12T06:03:25.916Z,4.95
2022-10-12T06:06:29.287Z,4.32
2022-10-12T06:09:32.117Z,4.75
2022-10-12T06:12:37.473Z,4.53
2022-10-12T06:15:40.479Z,3.97
2022-10-12T06:18:43.515Z,4.60
2022-10-12T06:21:46.100Z,4.80
2022-10-12T06:24:49.331Z,5.45
2022-10-12T06:27:52.247Z,3.97
2022-10-12T06:30:59.284Z,4.65
2022-10-12T06:34:02.142Z,4.28
2022-10-12T06:37:05.366Z,5.63
2022-10-12T06:40:08.953Z,4.45
2022-10-12T06:43:12.006Z,4.90
2022-10-12T06:46:14.626Z,4.85
2022-10-12T06:49:18.230Z,5.15
2022-10-12T06:52:21.074Z,4.97
2022-10-12T06:55:25.231Z,4.93
2022-10-12T06:58:28.122Z,4.47
2022-10-12T07:01:30.667Z,4.57
2022-10-12T07:04:33.303Z,5.13
2022-10-12T07:07:37.146Z,5.22
2022-10-12T07:10:39.921Z,4.80
2022-10-12T07:13:42.385Z,4.93
2022-10-12T07:16:45.630Z,5.50
2022-10-12T07:19:50.888Z,5.30
2022-10-12T07:22:54.198Z,4.93
2022-10-12T07:25:57.167Z,4.93
2022-10-12T07:29:02.862Z,5.95
2022-10-12T07:32:07.228Z,4.95
2022-10-12T07:35:09.786Z,5.13
2022-10-12T07:38:13.471Z,5.60
2022-10-12T07:41:17.077Z,4.78
2022-10-12T07:44:21.063Z,4.75
2022-10-12T07:47:24.354Z,5.18
2022-10-12T07:50:30.005Z,4.63
2022-10-12T07:53:34.395Z,6.10
2022-10-12T07:56:37.827Z,4.65
2022-10-12T07:59:40.388Z,5.43
2022-10-12T08:02:43.936Z,6.10
2022-10-12T08:05:46.794Z,5.03
2022-10-12T08:08:50.478Z,5.43
2022-10-12T08:11:54.029Z,4.35
2022-10-12T08:14:56.772Z,5.60
2022-10-12T08:17:59.273Z,5.28
2022-10-12T08:21:05.079Z,5.43
2022-10-12T08:24:07.889Z,5.20
2022-10-12T08:27:11.005Z,4.15
2022-10-12T08:30:14.527Z,5.18
2022-10-12T08:33:21.083Z,5.22
2022-10-12T08:36:23.548Z,5.03
2022-10-12T08:39:29.490Z,4.60
2022-10-12T08:42:50.325Z,6.20
2022-10-12T08:46:01.241Z,6.22
2022-10-12T08:49:11.410Z,5.60
2022-10-12T08:52:24.936Z,5.03
2022-10-12T08:55:40.329Z,4.93
2022-10-12T08:58:42.822Z,5.75
2022-10-12T09:02:00.299Z,5.18
2022-10-12T09:08:22.850Z,4.75
2022-10-12T09:11:37.487Z,5.10
2022-10-12T09:14:41.194Z,4.70
2022-10-12T09:17:54.027Z,4.40
2022-10-12T09:20:57.360Z,5.53
2022-10-12T09:24:00.148Z,5.70
2022-10-12T09:27:14.399Z,4.78
2022-10-12T09:30:19.901Z,4.15
2022-10-12T09:33:29.589Z,3.88
2022-10-12T09:36:35.312Z,4.57
2022-10-12T09:39:38.423Z,4.45
2022-10-12T09:42:41.027Z,3.72
2022-10-12T09:45:46.919Z,3.80
2022-10-12T09:49:01.676Z,4.22
2022-10-12T09:52:04.086Z,3.75
2022-10-12T09:58:50.711Z,3.67
2022-10-12T10:02:16.346Z,4.10
2022-10-12T10:05:26.834Z,3.90
2022-10-12T10:08:29.617Z,3.58
2022-10-12T10:11:33.135Z,3.80
2022-10-12T10:14:38.895Z,3.75
2022-10-12T10:17:41.250Z,3.03
2022-10-12T10:20:51.370Z,3.97
2022-10-12T10:23:56.884Z,4.38
2022-10-12T10:27:02.285Z,3.95
2022-10-12T10:30:30.041Z,4.00
2022-10-12T10:33:36.659Z,4.13
2022-10-12T10:36:56.466Z,4.30
2022-10-12T10:39:59.624Z,4.30
2022-10-12T10:43:07.155Z,3.92
2022-10-12T10:46:09.855Z,3.72
2022-10-12T10:49:24.639Z,4.68
2022-10-12T10:52:33.124Z,3.10
2022-10-12T10:55:42.376Z,4.28
2022-10-12T10:58:50.070Z,3.65
2022-10-12T11:01:59.297Z,4.00
2022-10-12T11:05:06.710Z,4.40
2022-10-12T11:08:21.862Z,3.55
2022-10-12T11:11:28.840Z,3.47
2022-10-12T11:14:37.471Z,4.18
2022-10-12T11:17:44.381Z,3.13
2022-10-12T11:24:15.189Z,3.10
2022-10-12T11:27:52.820Z,4.45
2022-10-12T11:30:56.551Z,3.78
2022-10-12T11:34:06.388Z,3.85
2022-10-12T11:37:20.075Z,3.67
2022-10-12T11:44:44.389Z,2.70
2022-10-12T11:47:49.611Z,3.47
2022-10-12T11:50:52.501Z,3.45
2022-10-12T11:54:01.268Z,3.75
2022-10-12T11:57:15.531Z,3.10
2022-10-12T12:00:24.534Z,3.42
2022-10-12T12:03:46.073Z,3.28
2022-10-12T12:07:02.904Z,3.17
2022-10-12T12:10:28.137Z,3.38
2022-10-12T12:13:31.313Z,3.22
2022-10-12T12:16:34.954Z,2.78
2022-10-12T12:19:38.839Z,2.35
2022-10-12T12:22:52.577Z,2.70
2022-10-12T12:26:16.011Z,2.20
2022-10-12T12:29:28.732Z,1.98
2022-10-12T12:32:44.714Z,2.03
2022-10-12T12:36:06.794Z,1.40
2022-10-12T12:39:26.461Z,1.20
2022-10-12T12:42:34.789Z,0.80
2022-10-12T12:45:37.934Z,1.10
2022-10-12T12:48:40.813Z,1.05
2022-10-12T12:51:44.972Z,1.33
2022-10-12T12:55:19.212Z,1.45
2022-10-12T12:58:43.434Z,1.20
2022-10-12T13:02:10.862Z,1.48
2022-10-12T13:05:23.605Z,1.15
2022-10-12T13:08:45.035Z,1.85
2022-10-12T13:12:10.869Z,2.10
2022-10-12T13:15:29.219Z,1.30
2022-10-12T13:18:48.475Z,1.00
2022-10-12T13:21:54.101Z,1.15
2022-10-12T13:25:04.122Z,0.80
2022-10-12T13:28:21.726Z,1.00
2022-10-12T13:31:31.627Z,1.08
2022-10-12T13:34:42.300Z,0.88
2022-10-12T13:37:44.903Z,1.20
2022-10-12T13:41:03.318Z,1.15
2022-10-12T13:44:06.762Z,1.20
2022-10-12T13:47:23.516Z,1.25
2022-10-12T13:50:26.601Z,1.10
2022-10-12T13:53:40.424Z,1.58
2022-10-12T13:56:43.052Z,1.10
2022-10-12T13:59:45.824Z,0.73
2022-10-12T14:03:00.815Z,1.10
2022-10-12T14:06:04.508Z,1.05
2022-10-12T14:09:10.440Z,0.90
2022-10-12T14:12:13.690Z,1.13
2022-10-12T14:15:17.204Z,0.82
2022-10-12T14:18:43.147Z,0.70
2022-10-12T14:21:47.832Z,0.85
2022-10-12T14:24:51.730Z,0.75
2022-10-12T14:27:56.611Z,0.80
2022-10-12T14:30:59.484Z,1.27
2022-10-12T14:34:25.065Z,0.60
2022-10-12T14:37:29.089Z,0.60
2022-10-12T14:40:39.739Z,0.82
2022-10-12T14:43:42.186Z,0.90
2022-10-12T14:47:02.877Z,0.85
2022-10-12T14:50:09.224Z,1.20
2022-10-12T14:53:15.536Z,0.70
2022-10-12T14:56:20.937Z,1.20
2022-10-12T14:59:23.343Z,0.80
2022-10-12T15:02:26.801Z,0.73
2022-10-12T15:05:32.381Z,1.00
2022-10-12T15:08:35.020Z,1.10
2022-10-12T15:11:37.599Z,1.13
2022-10-12T15:14:40.480Z,0.73
2022-10-12T15:17:42.704Z,0.80
2022-10-12T15:20:49.150Z,0.70
2022-10-12T15:23:52.390Z,1.17
2022-10-12T15:26:54.766Z,0.80
2022-10-12T15:29:57.100Z,0.98
2022-10-12T15:33:00.255Z,1.15
2022-10-12T15:36:02.811Z,0.80
2022-10-12T15:39:05.411Z,0.82
2022-10-12T15:42:07.696Z,1.17
2022-10-12T15:45:19.835Z,1.00
2022-10-12T15:48:22.698Z,0.98
2022-10-12T15:51:26.272Z,0.73
2022-10-12T15:54:31.165Z,0.83
2022-10-12T15:57:33.681Z,0.88
2022-10-12T16:00:36.697Z,0.82
2022-10-12T16:03:39.663Z,1.02
2022-10-12T16:06:42.400Z,1.05
2022-10-12T16:09:44.803Z,1.00
2022-10-12T16:12:49.588Z,0.95
2022-10-12T16:15:54.928Z,0.70
2022-10-12T16:18:59.098Z,0.93
2022-10-12T16:22:03.643Z,1.35
2022-10-12T16:25:08.607Z,1.00
2022-10-12T16:28:12.195Z,1.40
2022-10-12T16:31:18.316Z,1.08
2022-10-12T16:34:20.946Z,1.02
2022-10-12T16:37:23.409Z,1.10
2022-10-12T16:40:26.387Z,0.77
2022-10-12T16:43:29.376Z,1.00
2022-10-12T16:46:32.300Z,1.02
2022-10-12T16:49:38.530Z,0.90
2022-10-12T16:52:43.760Z,1.20
2022-10-12T16:55:46.573Z,1.05
2022-10-12T16:58:53.680Z,1.13
2022-10-12T17:01:59.192Z,1.30
2022-10-12T17:05:10.598Z,1.52
2022-10-12T17:08:18.511Z,0.93
2022-10-12T17:11:23.038Z,1.02
2022-10-12T17:14:27.590Z,0.95
2022-10-12T17:17:31.765Z,1.08
2022-10-12T17:20:35.495Z,0.70
2022-10-12T17:23:41.623Z,1.08
2022-10-12T17:26:45.133Z,1.02
2022-10-12T17:29:50.165Z,1.75
2022-10-12T17:32:52.906Z,0.90
2022-10-12T17:35:59.646Z,0.95
2022-10-12T17:42:09.260Z,1.30
2022-10-12T17:45:13.803Z,0.73
2022-10-12T17:48:18.890Z,0.80
2022-10-12T17:51:32.631Z,0.85
2022-10-12T17:54:38.738Z,0.90
2022-10-12T17:57:48.314Z,1.40
2022-10-12T18:00:51.883Z,2.00
2022-10-12T18:03:55.733Z,0.90
2022-10-12T18:07:03.079Z,1.23
2022-10-12T18:10:11.378Z,0.65
2022-10-12T18:13:15.915Z,1.10
2022-10-12T18:16:22.385Z,1.27
2022-10-12T18:19:25.319Z,1.05
2022-10-12T18:22:28.668Z,1.50
2022-10-12T18:25:31.641Z,0.90
2022-10-12T18:28:35.063Z,0.95
2022-10-12T18:31:40.344Z,0.80
2022-10-12T18:34:43.684Z,1.00
2022-10-12T18:37:47.077Z,1.00
2022-10-12T18:40:49.743Z,0.98
2022-10-12T18:43:57.961Z,1.23
2022-10-12T18:47:01.562Z,0.93
2022-10-12T18:50:09.586Z,0.90
2022-10-12T18:53:13.746Z,0.85
2022-10-12T18:56:19.406Z,1.00
2022-10-12T18:59:22.708Z,0.83
2022-10-12T19:02:25.318Z,1.30
2022-10-12T19:05:28.334Z,1.27
2022-10-12T19:08:32.042Z,0.82
2022-10-12T19:11:35.122Z,1.00
2022-10-12T19:14:38.249Z,1.02
2022-10-12T19:17:41.669Z,0.70
2022-10-12T19:20:44.529Z,1.00
2022-10-12T19:23:48.286Z,1.00
2022-10-12T19:26:52.355Z,1.05
2022-10-12T19:29:58.923Z,0.93
2022-10-12T19:33:01.580Z,1.17
2022-10-12T19:36:25.017Z,1.10
2022-10-12T19:39:28.663Z,1.13
2022-10-12T19:42:31.341Z,0.80
2022-10-12T19:45:41.429Z,0.80
2022-10-12T19:48:48.240Z,0.77
2022-10-12T19:51:54.016Z,0.68
2022-10-12T19:54:58.450Z,1.15
2022-10-12T19:58:03.708Z,1.10
2022-10-12T20:01:09.950Z,0.75
2022-10-12T20:04:12.830Z,1.50
2022-10-12T20:07:16.683Z,0.95
2022-10-12T20:10:19.492Z,1.20
2022-10-12T20:13:21.974Z,1.30
2022-10-12T20:16:25.078Z,0.90
2022-10-12T20:19:28.089Z,1.00
2022-10-12T20:22:30.622Z,1.17
2022-10-12T20:25:33.631Z,1.08
2022-10-12T20:28:37.593Z,1.38
2022-10-12T20:31:40.385Z,1.52
2022-10-12T20:34:43.216Z,1.92
2022-10-12T20:37:45.813Z,1.80
2022-10-12T20:40:48.457Z,1.38
2022-10-12T20:43:55.117Z,1.58
2022-10-12T20:46:58.023Z,1.38
2022-10-12T20:50:00.580Z,1.40
2022-10-12T20:53:03.129Z,2.13
2022-10-12T20:56:07.102Z,1.88
2022-10-12T20:59:10.530Z,2.05
2022-10-12T21:02:13.080Z,1.42
2022-10-12T21:05:15.644Z,1.38
2022-10-12T21:08:18.122Z,1.17
2022-10-12T21:11:21.336Z,1.58
2022-10-12T21:14:27.178Z,1.17
2022-10-12T21:17:29.516Z,1.08
2022-10-12T21:20:32.055Z,1.58
2022-10-12T21:23:39.912Z,1.52
2022-10-12T21:26:42.567Z,2.15
2022-10-12T21:29:44.960Z,2.00
2022-10-12T21:32:47.391Z,1.70
2022-10-12T21:35:49.723Z,1.45
2022-10-12T21:38:52.070Z,7.70
2022-10-12T21:41:54.649Z,2.88
2022-10-12T21:44:57.272Z,2.10
2022-10-12T21:47:59.813Z,2.10
2022-10-12T21:51:05.961Z,2.13
2022-10-12T21:54:08.693Z,2.50
2022-10-12T21:57:11.319Z,2.55
2022-10-12T22:00:14.205Z,1.17
2022-10-12T22:03:20.630Z,1.60
2022-10-12T22:06:24.372Z,1.67
2022-10-12T22:09:26.948Z,2.90
2022-10-12T22:12:30.518Z,2.15
2022-10-12T22:15:32.902Z,1.98
2022-10-12T22:18:48.274Z,1.58
2022-10-12T22:21:52.314Z,1.77
2022-10-12T22:24:54.864Z,3.13
2022-10-12T22:28:55.043Z,2.50
2022-10-12T22:32:17.632Z,5.30
2022-10-12T22:35:20.119Z,2.78
2022-10-12T22:38:22.789Z,2.95
2022-10-12T22:41:25.282Z,4.95
2022-10-12T22:44:28.008Z,2.90
2022-10-12T22:47:33.210Z,1.65
2022-10-12T22:50:36.652Z,2.42
2022-10-12T22:53:39.844Z,2.58
2022-10-12T22:56:42.387Z,2.70
2022-10-12T22:59:44.896Z,3.28
2022-10-12T23:02:47.597Z,4.25
2022-10-12T23:05:50.548Z,4.18
2022-10-12T23:08:53.188Z,3.65
2022-10-12T23:11:55.513Z,3.78
2022-10-12T23:14:57.882Z,3.83
2022-10-12T23:18:00.539Z,4.07
2022-10-12T23:21:08.456Z,3.25
2022-10-12T23:24:11.079Z,3.88
2022-10-12T23:27:16.019Z,3.40
2022-10-12T23:30:20.048Z,2.88
2022-10-12T23:33:25.596Z,4.57
2022-10-12T23:36:28.518Z,3.45
2022-10-12T23:39:30.991Z,3.08
2022-10-12T23:42:33.525Z,3.00
2022-10-12T23:45:37.171Z,2.65
2022-10-12T23:48:40.134Z,3.38
2022-10-12T23:51:42.962Z,3.13
2022-10-12T23:54:45.308Z,2.78
2022-10-12T23:57:47.737Z,3.38
